createdAt,value
2024-02-18T00:01:16.125Z,103362.13
2024-02-18T00:03:42.992Z,103383.41
2024-02-18T00:06:09.651Z,103330.59
2024-02-18T00:08:36.693Z,103391.94
2024-02-18T00:11:03.727Z,103336.38
2024-02-18T00:13:30.402Z,103374.06
2024-02-18T00:15:57.538Z,103381.47
2024-02-18T00:18:26.518Z,103327.81
2024-02-18T00:20:54.784Z,103371.56
2024-02-18T00:23:21.439Z,103366.59
2024-02-18T00:25:48.442Z,103367.50
2024-02-18T00:28:15.083Z,103343.47
2024-02-18T00:30:41.993Z,103343.38
2024-02-18T00:33:09.956Z,103345.72
2024-02-18T00:35:36.621Z,103347.19
2024-02-18T00:38:03.261Z,103346.53
2024-02-18T00:40:29.924Z,103350.69
2024-02-18T00:42:56.617Z,103348.53
2024-02-18T00:45:23.327Z,103336.69
2024-02-18T00:47:50.183Z,103338.25
2024-02-18T00:50:17.032Z,103336.09
2024-02-18T00:52:43.609Z,103331.19
2024-02-18T00:55:10.291Z,103333.25
2024-02-18T00:57:37.258Z,103269.72
2024-02-18T01:00:05.189Z,103312.19
2024-02-18T01:02:32.025Z,103335.13
2024-02-18T01:04:58.661Z,103337.78
2024-02-18T01:07:25.332Z,103320.41
2024-02-18T01:09:52.346Z,103265.63
2024-02-18T01:12:19.365Z,103322.84
2024-02-18T01:14:46.110Z,103328.13
2024-02-18T01:17:12.738Z,103272.56
2024-02-18T01:19:39.522Z,103311.06
2024-02-18T01:22:06.358Z,103310.56
2024-02-18T01:24:33.033Z,103307.63
2024-02-18T01:26:59.609Z,103237.00
2024-02-18T01:29:26.283Z,103226.16
2024-02-18T01:31:52.902Z,103233.25
2024-02-18T01:34:20.240Z,103297.16
2024-02-18T01:36:47.054Z,103282.78
2024-02-18T01:39:13.761Z,103227.19
2024-02-18T01:41:41.665Z,103282.41
2024-02-18T01:44:08.327Z,103280.50
2024-02-18T01:46:34.993Z,103269.81
2024-02-18T01:49:01.877Z,103267.06
2024-02-18T01:56:33.966Z,103254.28
2024-02-18T01:59:00.831Z,103212.38
2024-02-18T02:01:28.575Z,103132.75
2024-02-18T02:03:57.973Z,103269.84
2024-02-18T02:06:25.613Z,103258.38
2024-02-18T02:08:52.581Z,103254.66
2024-02-18T02:11:19.388Z,103225.38
2024-02-18T02:13:46.075Z,103251.72
2024-02-18T02:16:12.820Z,103247.91
2024-02-18T02:18:39.639Z,103236.34
2024-02-18T02:21:06.432Z,103226.13
2024-02-18T02:23:35.262Z,103226.03
2024-02-18T02:26:05.262Z,103226.75
2024-02-18T02:28:39.953Z,103240.50
2024-02-18T02:31:07.340Z,103198.28
2024-02-18T02:33:35.067Z,103245.31
2024-02-18T02:36:01.746Z,103238.53
2024-02-18T02:38:28.390Z,103241.19
2024-02-18T02:40:55.002Z,103207.97
2024-02-18T02:43:21.697Z,103209.44
2024-02-18T02:45:48.362Z,103200.00
2024-02-18T02:48:15.085Z,103146.56
2024-02-18T02:50:42.470Z,103209.00
2024-02-18T02:53:09.119Z,103222.34
2024-02-18T02:55:35.763Z,103167.94
2024-02-18T02:58:02.472Z,103221.16
2024-02-18T03:00:29.302Z,103214.38
2024-02-18T03:02:56.878Z,103210.38
2024-02-18T03:05:23.649Z,103203.41
2024-02-18T03:07:50.616Z,103200.06
2024-02-18T03:10:17.356Z,103147.09
2024-02-18T03:12:44.213Z,103172.13
2024-02-18T03:15:11.139Z,103171.16
2024-02-18T03:17:37.926Z,103172.63
2024-02-18T03:20:08.896Z,103155.94
2024-02-18T03:22:35.766Z,103180.63
2024-02-18T03:25:02.899Z,103139.03
2024-02-18T03:27:29.717Z,103169.56
2024-02-18T03:29:56.471Z,103169.13
2024-02-18T03:32:23.098Z,103166.25
2024-02-18T03:34:50.509Z,103170.19
2024-02-18T03:37:17.232Z,103160.47
2024-02-18T03:39:43.850Z,103131.66
2024-02-18T03:42:10.472Z,103170.19
2024-02-18T03:44:37.074Z,103166.38
2024-02-18T03:47:03.753Z,103156.00
2024-02-18T03:49:30.968Z,103138.22
2024-02-18T03:51:58.054Z,103146.28
2024-02-18T03:54:24.957Z,103140.41
2024-02-18T03:56:51.581Z,103054.47
2024-02-18T03:59:18.593Z,103132.81
2024-02-18T04:01:45.294Z,103088.66
2024-02-18T04:04:12.789Z,103118.28
2024-02-18T04:06:40.317Z,103112.03
2024-02-18T04:09:07.587Z,103126.56
2024-02-18T04:11:34.265Z,103093.72
2024-02-18T04:14:00.932Z,103069.06
2024-02-18T04:16:27.585Z,103124.81
2024-02-18T04:18:54.926Z,103056.97
2024-02-18T04:21:22.114Z,103125.91
2024-02-18T04:23:49.060Z,103114.81
2024-02-18T04:26:15.753Z,103114.19
2024-02-18T04:28:42.354Z,103113.72
2024-02-18T04:31:08.965Z,103104.25
2024-02-18T04:33:35.894Z,103046.00
2024-02-18T04:36:05.542Z,103020.22
2024-02-18T04:38:32.144Z,103032.00
2024-02-18T04:40:58.728Z,103093.31
2024-02-18T04:43:25.277Z,103074.72
2024-02-18T04:45:51.878Z,103086.47
2024-02-18T04:48:18.591Z,103095.84
2024-02-18T04:50:45.269Z,103036.88
2024-02-18T04:53:11.901Z,103086.47
2024-02-18T04:55:38.531Z,103071.38
2024-02-18T04:58:05.349Z,103051.59
2024-02-18T05:00:32.081Z,103059.97
2024-02-18T05:02:59.022Z,103049.78
2024-02-18T05:05:25.654Z,103051.59
2024-02-18T05:07:53.508Z,103051.75
2024-02-18T05:10:20.098Z,103014.59
2024-02-18T05:12:46.716Z,103059.06
2024-02-18T05:15:13.737Z,103015.75
2024-02-18T05:17:40.597Z,103046.69
2024-02-18T05:20:11.658Z,102995.03
2024-02-18T05:22:41.828Z,103031.22
2024-02-18T05:25:08.715Z,103039.59
2024-02-18T05:27:35.427Z,103045.56
2024-02-18T05:30:02.203Z,102993.81
2024-02-18T05:32:28.981Z,103012.53
2024-02-18T05:34:56.612Z,103031.53
2024-02-18T05:37:23.301Z,103021.53
2024-02-18T05:39:49.978Z,102963.78
2024-02-18T05:42:16.632Z,103018.34
2024-02-18T05:44:44.081Z,103021.47
2024-02-18T05:47:10.771Z,103015.09
2024-02-18T05:49:42.511Z,102996.72
2024-02-18T05:52:11.900Z,102995.31
2024-02-18T05:54:38.741Z,102966.66
2024-02-18T05:57:07.195Z,102981.00
2024-02-18T05:59:34.180Z,102982.56
2024-02-18T06:02:01.104Z,102928.03
2024-02-18T06:04:30.546Z,102973.78
2024-02-18T06:06:58.908Z,102973.66
2024-02-18T06:09:25.913Z,102965.97
2024-02-18T06:11:53.472Z,102961.25
2024-02-18T06:14:21.077Z,102970.53
2024-02-18T06:16:47.694Z,102945.97
2024-02-18T06:19:17.287Z,102838.44
2024-02-18T06:21:44.862Z,102925.59
2024-02-18T06:24:11.539Z,102916.56
2024-02-18T06:26:41.946Z,102907.38
2024-02-18T06:29:09.014Z,102912.88
2024-02-18T06:31:35.733Z,102909.28
2024-02-18T06:34:02.976Z,102895.19
2024-02-18T06:36:30.199Z,102899.44
2024-02-18T06:38:57.174Z,102899.25
2024-02-18T06:41:23.848Z,102891.13
2024-02-18T06:43:50.549Z,102858.34
2024-02-18T06:46:17.688Z,102866.88
2024-02-18T06:48:44.455Z,102892.56
2024-02-18T06:51:11.949Z,102880.47
2024-02-18T06:53:38.613Z,102870.97
2024-02-18T06:56:05.440Z,102867.50
2024-02-18T06:58:32.154Z,102863.38
2024-02-18T07:00:59.324Z,102863.44
2024-02-18T07:03:26.320Z,102795.31
2024-02-18T07:05:52.981Z,102844.09
2024-02-18T07:08:19.911Z,102856.75
2024-02-18T07:10:46.673Z,102856.28
2024-02-18T07:13:13.334Z,102820.31
2024-02-18T07:15:39.959Z,102844.41
2024-02-18T07:18:06.794Z,102844.59
2024-02-18T07:20:33.449Z,102687.06
2024-02-18T07:23:01.878Z,102843.38
2024-02-18T07:25:28.493Z,102836.47
2024-02-18T07:27:55.105Z,102814.59
2024-02-18T07:30:21.920Z,102840.41
2024-02-18T07:32:50.512Z,102828.16
2024-02-18T07:35:17.480Z,102838.09
2024-02-18T07:37:44.110Z,102774.19
2024-02-18T07:40:11.285Z,102832.69
2024-02-18T07:42:39.219Z,102820.72
2024-02-18T07:45:06.472Z,102819.56
2024-02-18T07:47:33.578Z,102800.78
2024-02-18T07:50:00.431Z,102826.53
2024-02-18T07:52:27.160Z,102825.97
2024-02-18T07:54:53.918Z,102813.09
2024-02-18T07:57:22.099Z,102785.50
2024-02-18T07:59:48.763Z,102813.88
2024-02-18T08:02:15.364Z,102806.53
2024-02-18T08:04:42.035Z,102824.69
2024-02-18T08:07:08.741Z,102780.50
2024-02-18T08:09:35.426Z,102813.56
2024-02-18T08:12:02.121Z,102763.78
2024-02-18T08:14:28.740Z,102802.78
2024-02-18T08:16:57.711Z,102791.94
2024-02-18T08:19:24.553Z,102794.25
2024-02-18T08:21:51.657Z,102799.72
2024-02-18T08:24:18.609Z,102785.78
2024-02-18T08:26:45.182Z,102765.78
2024-02-18T08:29:11.921Z,102783.63
2024-02-18T08:31:39.509Z,102779.03
2024-02-18T08:34:07.149Z,102777.84
2024-02-18T08:36:34.160Z,102780.53
2024-02-18T08:39:00.891Z,102759.75
2024-02-18T08:41:27.451Z,102771.50
2024-02-18T08:43:54.400Z,102734.75
2024-02-18T08:46:21.056Z,102758.88
2024-02-18T08:48:47.907Z,102748.16
2024-02-18T08:51:14.655Z,102735.53
2024-02-18T08:53:42.700Z,102735.44
2024-02-18T08:56:11.149Z,102715.59
2024-02-18T08:58:38.207Z,102749.63
2024-02-18T09:01:05.939Z,102719.81
2024-02-18T09:03:33.004Z,102705.31
2024-02-18T09:05:59.996Z,102725.81
2024-02-18T09:08:26.794Z,102681.75
2024-02-18T09:10:56.257Z,102719.19
2024-02-18T09:13:23.247Z,102702.78
2024-02-18T09:15:50.727Z,102661.59
2024-02-18T09:18:18.598Z,102696.38
2024-02-18T09:20:45.880Z,102716.31
2024-02-18T09:23:12.619Z,102709.16
2024-02-18T09:25:39.314Z,102706.56
2024-02-18T09:28:07.240Z,102607.09
2024-02-18T09:30:34.060Z,102682.44
2024-02-18T09:33:01.719Z,102681.25
2024-02-18T09:35:29.029Z,102642.63
2024-02-18T09:37:56.037Z,102691.25
2024-02-18T09:40:24.065Z,102686.03
2024-02-18T09:42:54.388Z,102651.66
2024-02-18T09:45:30.841Z,102698.22
2024-02-18T09:47:58.550Z,102685.19
2024-02-18T09:50:25.344Z,102688.19
2024-02-18T09:52:54.426Z,102680.13
2024-02-18T09:55:21.732Z,102607.00
2024-02-18T09:57:48.338Z,102633.44
2024-02-18T10:00:15.475Z,102619.09
2024-02-18T10:02:43.791Z,102666.94
2024-02-18T10:05:11.426Z,102608.88
2024-02-18T10:07:38.632Z,102661.06
2024-02-18T10:10:06.361Z,102647.88
2024-02-18T10:12:34.330Z,102626.72
2024-02-18T10:15:05.330Z,102630.81
2024-02-18T10:17:32.837Z,102632.41
2024-02-18T10:19:59.874Z,102622.66
2024-02-18T10:22:27.424Z,102564.50
2024-02-18T10:24:55.361Z,102598.50
2024-02-18T10:27:22.236Z,102560.16
2024-02-18T10:29:49.632Z,102548.13
2024-02-18T10:32:17.474Z,102595.22
2024-02-18T10:34:49.849Z,102582.47
2024-02-18T10:37:37.901Z,102576.44
2024-02-18T10:40:25.693Z,102570.34
2024-02-18T10:42:55.929Z,102561.97
2024-02-18T10:45:23.213Z,102568.72
2024-02-18T10:47:53.910Z,102545.47
2024-02-18T10:50:23.141Z,102528.38
2024-02-18T10:52:52.931Z,102525.56
2024-02-18T10:55:22.603Z,102505.69
2024-02-18T10:57:59.576Z,102510.50
2024-02-18T11:00:28.646Z,102520.25
2024-02-18T11:03:07.137Z,102508.75
2024-02-18T11:05:37.552Z,102477.22
2024-02-18T11:08:05.413Z,102493.00
2024-02-18T11:10:33.147Z,102469.69
2024-02-18T11:13:00.698Z,102479.69
2024-02-18T11:15:28.148Z,102463.25
2024-02-18T11:17:56.224Z,102466.09
2024-02-18T11:20:26.396Z,102377.59
2024-02-18T11:22:56.587Z,102448.38
2024-02-18T11:25:24.094Z,102416.44
2024-02-18T11:27:51.950Z,102438.53
2024-02-18T11:30:18.941Z,102472.50
2024-02-18T11:32:45.821Z,102447.91
2024-02-18T11:35:16.948Z,102473.06
2024-02-18T11:37:43.700Z,102449.06
2024-02-18T11:40:18.751Z,102423.31
2024-02-18T11:42:49.039Z,102437.28
2024-02-18T11:45:21.276Z,102444.22
2024-02-18T11:47:49.928Z,102416.25
2024-02-18T11:50:18.693Z,102393.28
2024-02-18T11:52:47.807Z,102398.22
2024-02-18T11:55:14.922Z,102403.03
2024-02-18T11:57:41.985Z,102371.44
2024-02-18T12:00:18.061Z,102369.84
2024-02-18T12:02:57.073Z,102346.97
2024-02-18T12:05:25.248Z,102349.63
2024-02-18T12:07:55.706Z,102307.66
2024-02-18T12:10:23.536Z,102284.94
2024-02-18T12:12:50.228Z,102350.13
2024-02-18T12:15:24.490Z,102347.75
2024-02-18T12:17:54.954Z,102302.84
2024-02-18T12:20:24.592Z,102333.84
2024-02-18T12:22:52.033Z,102321.53
2024-02-18T12:25:19.080Z,102329.06
2024-02-18T12:27:50.152Z,102273.44
2024-02-18T12:30:17.844Z,102311.50
2024-02-18T12:32:47.385Z,102281.91
2024-02-18T12:35:14.289Z,102306.56
2024-02-18T12:37:41.984Z,102307.63
2024-02-18T12:40:10.586Z,102303.09
2024-02-18T12:42:49.641Z,102301.41
2024-02-18T12:45:42.325Z,102294.44
2024-02-18T12:48:14.037Z,102296.72
2024-02-18T12:50:40.912Z,102292.78
2024-02-18T12:53:07.715Z,102279.84
2024-02-18T12:55:36.709Z,102266.22
2024-02-18T12:58:03.576Z,102249.53
2024-02-18T13:00:31.358Z,102242.69
2024-02-18T13:02:57.995Z,102238.66
2024-02-18T13:05:25.976Z,102134.81
2024-02-18T13:07:54.995Z,102222.22
2024-02-18T13:10:22.002Z,102178.63
2024-02-18T13:12:51.353Z,102186.00
2024-02-18T13:15:18.896Z,102202.53
2024-02-18T13:17:52.802Z,102039.09
2024-02-18T13:20:20.277Z,102133.25
2024-02-18T13:22:49.760Z,102116.50
2024-02-18T13:25:16.691Z,102057.47
2024-02-18T13:27:43.665Z,102102.13
2024-02-18T13:30:11.116Z,102120.72
2024-02-18T13:32:38.317Z,102083.06
2024-02-18T13:35:09.272Z,102086.34
2024-02-18T13:37:36.076Z,102095.22
2024-02-18T13:40:04.181Z,102092.81
2024-02-18T13:42:30.888Z,102090.53
2024-02-18T13:44:57.691Z,102087.19
2024-02-18T13:47:24.565Z,102028.47
2024-02-18T13:49:53.814Z,102045.50
2024-02-18T13:52:21.808Z,102080.94
2024-02-18T13:54:48.467Z,102080.47
2024-02-18T13:57:15.127Z,102056.94
2024-02-18T13:59:41.738Z,102066.22
2024-02-18T14:02:08.330Z,101998.50
2024-02-18T14:04:35.015Z,102079.63
2024-02-18T14:07:01.670Z,102046.56
2024-02-18T14:09:30.567Z,102055.53
2024-02-18T14:11:57.390Z,101978.25
2024-02-18T14:14:23.995Z,101989.84
2024-02-18T14:16:52.803Z,101963.78
2024-02-18T14:19:20.315Z,101996.66
2024-02-18T14:21:47.253Z,101928.16
2024-02-18T14:24:14.116Z,102016.28
2024-02-18T14:26:42.444Z,102009.59
2024-02-18T14:29:09.145Z,101945.41
2024-02-18T14:31:35.988Z,101935.88
2024-02-18T14:34:02.956Z,101948.38
2024-02-18T14:36:30.868Z,101964.59
2024-02-18T14:38:57.905Z,101876.72
2024-02-18T14:41:24.986Z,101887.41
2024-02-18T14:43:51.958Z,101943.63
2024-02-18T14:46:18.666Z,101948.78
2024-02-18T14:48:45.503Z,101907.59
2024-02-18T14:51:14.251Z,101926.13
2024-02-18T14:53:45.889Z,101923.50
2024-02-18T14:56:12.533Z,101893.00
2024-02-18T14:58:39.102Z,101861.38
2024-02-18T15:01:05.887Z,101862.00
2024-02-18T15:03:33.009Z,101904.03
2024-02-18T15:06:00.076Z,101890.41
2024-02-18T15:08:27.142Z,101867.94
2024-02-18T15:10:54.873Z,101875.13
2024-02-18T15:13:24.727Z,101832.59
2024-02-18T15:15:51.516Z,101850.09
2024-02-18T15:18:18.944Z,101751.06
2024-02-18T15:20:45.789Z,101842.69
2024-02-18T15:23:12.527Z,101803.56
2024-02-18T15:25:39.175Z,101761.22
2024-02-18T15:28:05.915Z,101723.84
2024-02-18T15:30:32.824Z,101749.31
2024-02-18T15:33:00.011Z,101747.19
2024-02-18T15:35:29.205Z,101748.69
2024-02-18T15:37:56.098Z,101726.13
2024-02-18T15:40:23.059Z,101745.59
2024-02-18T15:42:50.018Z,101751.09
2024-02-18T15:45:17.610Z,101777.31
2024-02-18T15:47:44.595Z,101735.06
2024-02-18T15:50:11.617Z,101760.47
2024-02-18T15:52:38.314Z,101745.06
2024-02-18T15:55:05.398Z,101746.63
2024-02-18T15:57:33.150Z,101728.34
2024-02-18T15:59:59.854Z,101720.81
2024-02-18T16:02:26.450Z,101698.69
2024-02-18T16:04:58.487Z,101721.34
2024-02-18T16:07:26.960Z,101714.00
2024-02-18T16:09:53.854Z,101749.81
2024-02-18T16:12:20.844Z,101571.72
2024-02-18T16:14:47.658Z,100897.56
2024-02-18T16:17:14.265Z,100820.41
2024-02-18T16:19:40.936Z,100836.59
2024-02-18T16:22:07.632Z,100990.66
2024-02-18T16:24:36.365Z,101084.09
2024-02-18T16:27:03.503Z,101082.94
2024-02-18T16:29:31.726Z,101133.56
2024-02-18T16:31:58.321Z,101221.47
2024-02-18T16:34:25.848Z,101272.06
2024-02-18T16:36:53.321Z,101259.13
2024-02-18T16:39:24.572Z,101292.94
2024-02-18T16:41:51.143Z,101358.75
2024-02-18T16:44:17.774Z,101325.25
2024-02-18T16:46:44.417Z,101314.78
2024-02-18T16:49:14.730Z,101380.59
2024-02-18T16:51:45.598Z,101335.75
2024-02-18T16:54:12.923Z,101379.84
2024-02-18T16:56:39.583Z,101346.72
2024-02-18T16:59:06.245Z,101337.19
2024-02-18T17:01:33.126Z,101208.06
2024-02-18T17:04:00.023Z,101222.63
2024-02-18T17:06:26.872Z,101294.69
2024-02-18T17:08:53.569Z,101372.41
2024-02-18T17:11:21.228Z,101366.13
2024-02-18T17:13:50.204Z,101380.91
2024-02-18T17:16:17.459Z,101389.47
2024-02-18T17:18:44.375Z,101345.59
2024-02-18T17:21:11.262Z,101374.78
2024-02-18T17:23:37.924Z,101409.28
2024-02-18T17:26:04.863Z,101364.47
2024-02-18T17:28:31.652Z,101412.75
2024-02-18T17:30:58.523Z,101423.69
2024-02-18T17:33:25.936Z,101376.16
2024-02-18T17:35:52.698Z,101369.88
2024-02-18T17:38:19.369Z,101378.59
2024-02-18T17:40:48.083Z,101346.78
2024-02-18T17:43:15.093Z,101329.00
2024-02-18T17:45:42.570Z,101257.50
2024-02-18T17:48:09.855Z,101319.53
2024-02-18T17:50:39.714Z,101338.84
2024-02-18T17:53:08.029Z,101311.94
2024-02-18T17:55:34.618Z,101316.44
2024-02-18T17:58:01.400Z,101290.81
2024-02-18T18:00:28.323Z,101282.41
2024-02-18T18:02:55.048Z,101246.47
2024-02-18T18:05:22.351Z,101277.28
2024-02-18T18:07:54.017Z,101293.00
2024-02-18T18:10:23.214Z,101279.69
2024-02-18T18:12:51.595Z,101275.53
2024-02-18T18:15:22.919Z,101290.31
2024-02-18T18:17:50.343Z,101210.47
2024-02-18T18:20:17.376Z,101297.78
2024-02-18T18:22:48.888Z,101223.78
2024-02-18T18:25:15.893Z,101292.44
2024-02-18T18:27:42.774Z,101238.09
2024-02-18T18:30:09.812Z,101270.06
2024-02-18T18:32:36.549Z,101295.00
2024-02-18T18:35:05.474Z,101330.41
2024-02-18T18:37:32.367Z,101331.84
2024-02-18T18:39:59.700Z,101338.91
2024-02-18T18:42:26.937Z,101337.19
2024-02-18T18:44:53.680Z,101365.13
2024-02-18T18:47:20.502Z,101304.59
2024-02-18T18:49:52.976Z,101330.31
2024-02-18T18:52:19.947Z,101273.00
2024-02-18T18:54:46.671Z,101310.66
2024-02-18T18:57:13.310Z,101384.28
2024-02-18T18:59:39.922Z,101398.91
2024-02-18T19:02:07.222Z,101394.09
2024-02-18T19:04:34.136Z,101338.59
2024-02-18T19:07:02.423Z,101387.41
2024-02-18T19:09:33.714Z,101345.81
2024-02-18T19:12:01.237Z,101362.59
2024-02-18T19:14:28.228Z,101381.81
2024-02-18T19:16:54.986Z,101396.28
2024-02-18T19:19:25.030Z,101403.13
2024-02-18T19:21:51.990Z,101363.97
2024-02-18T19:24:18.686Z,101341.25
2024-02-18T19:26:45.354Z,101369.97
2024-02-18T19:29:12.055Z,101296.59
2024-02-18T19:31:42.421Z,101381.19
2024-02-18T19:34:13.227Z,101405.88
2024-02-18T19:36:41.326Z,101406.66
2024-02-18T19:39:11.528Z,101359.63
2024-02-18T19:41:42.048Z,101412.53
2024-02-18T19:44:09.081Z,101380.06
2024-02-18T19:46:43.465Z,101375.22
2024-02-18T19:49:14.927Z,101396.69
2024-02-18T19:51:45.630Z,101392.59
2024-02-18T19:54:14.915Z,101298.19
2024-02-18T19:56:42.235Z,101344.75
2024-02-18T19:59:09.765Z,101332.03
2024-02-18T20:01:36.980Z,101358.56
2024-02-18T20:04:04.072Z,101383.34
2024-02-18T20:06:31.161Z,101377.34
2024-02-18T20:08:57.912Z,101352.16
2024-02-18T20:11:28.283Z,101363.34
2024-02-18T20:13:57.406Z,101359.00
2024-02-18T20:16:24.126Z,101344.09
2024-02-18T20:18:50.930Z,101353.84
2024-02-18T20:21:21.641Z,101359.59
2024-02-18T20:23:48.204Z,101254.06
2024-02-18T20:26:19.363Z,101361.13
2024-02-18T20:28:46.717Z,101357.66
2024-02-18T20:31:18.570Z,101307.97
2024-02-18T20:33:45.732Z,101367.31
2024-02-18T20:36:15.708Z,101328.72
2024-02-18T20:38:42.721Z,101352.44
2024-02-18T20:41:09.452Z,101348.03
2024-02-18T20:43:36.310Z,101353.94
2024-02-18T20:46:05.907Z,101322.41
2024-02-18T20:48:32.628Z,101341.59
2024-02-18T20:50:59.832Z,101366.78
2024-02-18T20:53:26.458Z,101357.72
2024-02-18T20:55:53.052Z,101345.03
2024-02-18T20:58:21.124Z,101363.28
2024-02-18T21:00:48.482Z,101353.41
2024-02-18T21:03:16.028Z,101328.44
2024-02-18T21:05:43.648Z,101330.97
2024-02-18T21:08:10.440Z,101302.25
2024-02-18T21:10:37.217Z,101337.75
2024-02-18T21:13:04.149Z,101346.94
2024-02-18T21:15:30.816Z,101332.84
2024-02-18T21:17:57.522Z,101366.06
2024-02-18T21:20:24.209Z,101340.59
2024-02-18T21:22:51.401Z,101345.03
2024-02-18T21:25:18.219Z,101351.75
2024-02-18T21:27:45.016Z,101351.13
2024-02-18T21:30:12.263Z,101364.50
2024-02-18T21:32:42.068Z,101378.53
2024-02-18T21:35:09.092Z,101221.72
2024-02-18T21:37:38.428Z,101376.31
2024-02-18T21:40:07.261Z,101334.19
2024-02-18T21:42:35.796Z,101385.72
2024-02-18T21:45:02.638Z,101370.09
2024-02-18T21:47:29.366Z,101384.50
2024-02-18T21:49:56.208Z,101387.66
2024-02-18T21:52:23.064Z,101384.41
2024-02-18T21:54:51.511Z,101377.84
2024-02-18T21:57:19.049Z,101344.66
2024-02-18T21:59:46.408Z,101388.59
2024-02-18T22:02:13.280Z,101391.72
2024-02-18T22:04:40.487Z,101378.22
2024-02-18T22:07:13.872Z,101349.22
2024-02-18T22:09:45.372Z,101392.56
2024-02-18T22:12:12.472Z,101346.13
2024-02-18T22:14:41.576Z,101346.91
2024-02-18T22:17:08.363Z,101384.25
2024-02-18T22:19:35.208Z,101377.91
2024-02-18T22:22:02.235Z,101395.81
2024-02-18T22:24:30.034Z,101398.78
2024-02-18T22:26:56.683Z,101383.41
2024-02-18T22:29:23.290Z,101366.91
2024-02-18T22:31:50.417Z,101376.59
2024-02-18T22:34:17.771Z,101375.31
2024-02-18T22:36:44.795Z,101368.66
2024-02-18T22:39:13.168Z,101388.31
2024-02-18T22:41:39.836Z,101381.78
2024-02-18T22:44:06.508Z,101336.06
2024-02-18T22:46:33.732Z,101376.50
2024-02-18T22:49:00.616Z,101395.03
2024-02-18T22:51:27.298Z,101343.13
2024-02-18T22:53:53.896Z,101342.53
2024-02-18T22:56:20.814Z,101333.97
2024-02-18T22:58:47.638Z,101383.31
2024-02-18T23:01:15.230Z,101406.28
2024-02-18T23:03:41.971Z,101401.44
2024-02-18T23:06:08.614Z,101409.03
2024-02-18T23:08:36.818Z,101408.44
2024-02-18T23:11:05.948Z,101371.41
2024-02-18T23:13:32.628Z,101410.75
2024-02-18T23:15:59.510Z,101416.72
2024-02-18T23:18:26.285Z,101382.00
2024-02-18T23:20:52.969Z,101407.03
2024-02-18T23:23:19.572Z,101410.91
2024-02-18T23:25:46.198Z,101437.09
2024-02-18T23:28:12.906Z,101431.50
2024-02-18T23:30:39.694Z,101426.09
2024-02-18T23:33:06.400Z,101432.47
2024-02-18T23:35:33.881Z,101450.00
2024-02-18T23:38:00.542Z,101392.44
2024-02-18T23:40:27.288Z,101405.69
2024-02-18T23:42:53.976Z,101421.88
2024-02-18T23:45:20.573Z,101425.63
2024-02-18T23:47:47.249Z,101433.22
2024-02-18T23:50:14.003Z,101395.91
2024-02-18T23:52:40.684Z,101419.81
2024-02-18T23:55:07.636Z,101438.47
2024-02-18T23:57:34.293Z,101444.25
